Time;durP1;ratioP1;P1;durP2;ratioP2;P2;SDS_P1;SDS_P2;PMS_P1;PMS_P2;Temp;Humidity;BMP_temperature;BMP_pressure;BME280_temperature;BME280_humidity;BME280_pressure;Samples;Min_cycle;Max_cycle;Signal;HPM_P1;HPM_P2
2022/04/06 00:00:22;;;;;;;7.93;6.10;;;10.20;99.90;;;;;;5033059;28;20942;-70
2022/04/06 00:02:49;;;;;;;9.20;5.70;;;10.20;99.90;;;;;;5032841;28;20464;-70
2022/04/06 00:05:16;;;;;;;8.27;5.80;;;10.20;99.90;;;;;;5032862;28;20515;-70
2022/04/06 00:07:45;;;;;;;7.27;5.70;;;10.20;99.90;;;;;;5032791;28;20488;-70
2022/04/06 00:10:14;;;;;;;9.87;6.07;;;10.20;99.90;;;;;;5013235;28;20507;-70
2022/04/06 00:12:41;;;;;;;8.70;6.63;;;10.10;99.90;;;;;;5012257;28;21013;-70
2022/04/06 00:15:10;;;;;;;7.40;5.90;;;10.10;99.90;;;;;;5023397;28;20989;-70
2022/04/06 00:17:37;;;;;;;9.77;6.93;;;10.10;99.90;;;;;;5032720;28;20450;-70
2022/04/06 00:20:05;;;;;;;9.80;7.30;;;10.10;99.90;;;;;;5032556;28;20497;-70
2022/04/06 00:22:32;;;;;;;11.20;6.93;;;10.10;99.90;;;;;;5032529;28;20774;-70
2022/04/06 00:24:59;;;;;;;10.33;6.60;;;10.10;99.90;;;;;;5032339;28;20457;-70
2022/04/06 00:27:27;;;;;;;10.07;7.07;;;10.00;99.90;;;;;;5032877;28;20453;-70
2022/04/06 00:29:54;;;;;;;10.70;7.73;;;10.00;99.90;;;;;;5032685;28;20485;-70
2022/04/06 00:32:21;;;;;;;8.30;6.23;;;10.00;99.90;;;;;;5032053;28;20472;-70
2022/04/06 00:37:32;;;;;;;9.80;7.10;;;9.90;99.90;;;;;;5032550;28;21144;-70
2022/04/06 00:39:59;;;;;;;12.83;7.90;;;9.90;99.90;;;;;;5032445;28;20495;-70
2022/04/06 00:42:27;;;;;;;13.97;7.60;;;9.90;99.90;;;;;;5032783;28;20496;-70
2022/04/06 00:44:54;;;;;;;11.20;7.37;;;9.80;99.90;;;;;;5031968;28;20450;-70
2022/04/06 00:47:21;;;;;;;8.63;6.60;;;9.90;99.90;;;;;;5031998;28;21012;-70
2022/04/06 00:49:47;;;;;;;10.93;7.53;;;9.80;99.90;;;;;;5031607;28;20493;-70
2022/04/06 00:52:14;;;;;;;10.67;6.50;;;9.80;99.90;;;;;;5032246;28;20450;-71
2022/04/06 00:54:42;;;;;;;9.30;7.00;;;9.80;99.90;;;;;;5031554;28;20457;-70
2022/04/06 00:57:09;;;;;;;18.00;8.33;;;9.80;99.90;;;;;;5031982;28;20454;-70
2022/04/06 00:59:38;;;;;;;9.63;6.93;;;9.70;99.90;;;;;;5031810;28;20527;-70
2022/04/06 01:02:06;;;;;;;11.00;7.30;;;9.70;99.90;;;;;;5022802;28;20453;-70
2022/04/06 01:04:32;;;;;;;13.27;8.30;;;9.70;99.90;;;;;;5031736;28;20457;-70
2022/04/06 01:06:59;;;;;;;9.90;7.23;;;9.70;99.90;;;;;;5031712;28;20457;-70
2022/04/06 01:09:28;;;;;;;12.07;6.90;;;9.60;99.90;;;;;;5031715;28;20994;-70
2022/04/06 01:11:55;;;;;;;9.37;6.57;;;9.60;99.90;;;;;;5031591;28;20457;-70
2022/04/06 01:14:22;;;;;;;9.20;7.10;;;9.60;99.90;;;;;;5031271;28;21206;-70
2022/04/06 01:17:00;;;;;;;11.37;7.90;;;9.60;99.90;;;;;;5031854;28;20445;-70
2022/04/06 01:19:37;;;;;;;10.90;7.17;;;9.60;99.90;;;;;;5032075;28;20461;-70
2022/04/06 01:22:09;;;;;;;8.93;6.80;;;9.60;99.90;;;;;;5031483;28;20886;-70
2022/04/06 01:24:36;;;;;;;11.53;7.03;;;9.50;99.90;;;;;;5030837;28;20503;-70
2022/04/06 01:27:03;;;;;;;11.80;8.00;;;9.60;99.90;;;;;;5031200;28;20453;-70
2022/04/06 01:29:30;;;;;;;10.30;7.27;;;9.60;99.90;;;;;;5031219;28;20474;-70
2022/04/06 01:31:57;;;;;;;13.23;7.73;;;9.60;99.90;;;;;;5031484;28;20450;-70
2022/04/06 01:34:23;;;;;;;12.00;6.90;;;9.60;99.90;;;;;;5031213;28;20511;-70
2022/04/06 01:36:50;;;;;;;17.07;8.27;;;9.60;99.90;;;;;;5031330;28;20453;-70
2022/04/06 01:39:18;;;;;;;8.10;6.60;;;9.50;99.90;;;;;;5029555;28;20956;-70
2022/04/06 01:41:44;;;;;;;14.33;7.50;;;9.60;99.90;;;;;;5031306;28;20519;-70
2022/04/06 01:44:11;;;;;;;12.47;8.27;;;9.50;99.90;;;;;;5031190;28;20458;-70
2022/04/06 01:46:38;;;;;;;12.90;7.80;;;9.50;99.90;;;;;;5031390;28;20875;-70
2022/04/06 01:54:34;;;;;;;12.20;8.67;;;9.60;99.90;;;;;;5030808;28;20444;-70
2022/04/06 01:57:01;;;;;;;14.53;7.93;;;9.50;99.90;;;;;;5031138;28;20546;-70
2022/04/06 01:59:28;;;;;;;19.30;8.53;;;9.50;99.90;;;;;;5030508;28;20473;-70
2022/04/06 02:01:55;;;;;;;12.83;8.50;;;9.50;99.90;;;;;;5031124;28;20452;-70
2022/04/06 02:04:22;;;;;;;11.93;8.33;;;9.50;99.90;;;;;;5030823;28;20448;-70
2022/04/06 02:06:48;;;;;;;13.83;7.87;;;9.50;99.90;;;;;;5030805;28;20445;-70
2022/04/06 02:09:15;;;;;;;13.50;8.50;;;9.50;99.90;;;;;;5030584;28;20466;-70
2022/04/06 02:11:44;;;;;;;16.13;8.33;;;9.50;99.90;;;;;;5030980;28;20485;-70
2022/04/06 02:14:11;;;;;;;12.40;8.80;;;9.50;99.90;;;;;;5030196;28;20874;-70
2022/04/06 02:16:38;;;;;;;14.33;7.80;;;9.60;99.90;;;;;;5030108;28;20453;-70
2022/04/06 02:19:05;;;;;;;10.73;7.67;;;9.60;99.90;;;;;;5030747;28;20496;-70
2022/04/06 02:21:31;;;;;;;10.70;7.13;;;9.60;99.90;;;;;;5030543;28;20449;-70
2022/04/06 02:23:58;;;;;;;12.73;7.87;;;9.60;99.90;;;;;;5030355;28;21004;-70
2022/04/06 02:26:25;;;;;;;13.10;7.77;;;9.60;99.90;;;;;;5030547;28;20481;-70
2022/04/06 02:28:53;;;;;;;16.47;8.77;;;9.60;99.90;;;;;;5029950;28;20563;-70
2022/04/06 02:31:20;;;;;;;11.93;7.27;;;9.60;99.90;;;;;;5029851;28;20481;-70
2022/04/06 02:33:47;;;;;;;12.53;8.07;;;9.60;99.90;;;;;;5030289;28;20454;-70
2022/04/06 02:36:13;;;;;;;12.43;7.70;;;9.60;99.90;;;;;;5029677;28;20515;-70
2022/04/06 02:38:40;;;;;;;10.87;7.30;;;9.60;99.90;;;;;;5030342;28;20477;-70
2022/04/06 02:41:07;;;;;;;19.07;8.77;;;9.60;99.90;;;;;;5029948;28;20454;-70
2022/04/06 02:43:34;;;;;;;14.93;8.00;;;9.50;99.90;;;;;;5030581;28;20449;-70
2022/04/06 02:46:03;;;;;;;8.83;6.83;;;9.60;99.90;;;;;;5030329;28;20515;-70
2022/04/06 02:48:29;;;;;;;11.60;8.00;;;9.50;99.90;;;;;;5029455;28;20517;-70
2022/04/06 02:50:56;;;;;;;12.40;6.90;;;9.60;99.90;;;;;;5030532;28;20496;-70
2022/04/06 02:53:23;;;;;;;16.03;8.80;;;9.50;99.90;;;;;;5030290;28;20603;-70
2022/04/06 02:55:50;;;;;;;14.30;8.00;;;9.50;99.90;;;;;;5030600;28;20453;-70
2022/04/06 02:58:17;;;;;;;10.97;7.20;;;9.50;99.90;;;;;;5029894;28;20473;-70
2022/04/06 03:00:44;;;;;;;12.93;7.10;;;9.50;99.90;;;;;;5029909;28;20449;-70
2022/04/06 03:03:12;;;;;;;10.00;6.80;;;9.50;99.90;;;;;;5029948;28;20469;-71
2022/04/06 03:05:39;;;;;;;11.53;6.93;;;9.50;99.90;;;;;;5030604;28;20515;-70
2022/04/06 03:08:06;;;;;;;14.50;7.27;;;9.60;99.90;;;;;;5030094;28;20473;-70
2022/04/06 03:10:33;;;;;;;12.47;7.17;;;9.60;99.90;;;;;;5010646;28;20536;-70
2022/04/06 03:13:00;;;;;;;11.80;6.87;;;9.70;99.90;;;;;;5010295;28;20490;-70
2022/04/06 03:15:27;;;;;;;14.83;7.10;;;9.70;99.90;;;;;;5029544;28;20907;-70
2022/04/06 03:17:53;;;;;;;12.40;6.83;;;9.70;99.90;;;;;;5030308;28;20512;-70
2022/04/06 03:20:21;;;;;;;14.53;7.17;;;9.70;99.90;;;;;;5029891;28;20506;-71
2022/04/06 03:22:48;;;;;;;9.07;6.23;;;9.70;99.90;;;;;;5030332;28;20449;-71
2022/04/06 03:25:15;;;;;;;13.77;6.60;;;9.60;99.90;;;;;;5029945;28;20507;-70
2022/04/06 03:27:42;;;;;;;13.90;6.50;;;9.60;99.90;;;;;;5030077;28;20514;-70
2022/04/06 03:30:11;;;;;;;10.67;6.37;;;9.60;99.90;;;;;;5018923;28;20882;-70
2022/04/06 03:32:38;;;;;;;13.23;7.00;;;9.50;99.90;;;;;;5030115;28;20465;-71
2022/04/06 03:35:05;;;;;;;13.23;6.87;;;9.40;99.90;;;;;;5029560;28;20576;-70
2022/04/06 03:37:34;;;;;;;8.63;6.13;;;9.40;99.90;;;;;;5030125;28;20446;-71
2022/04/06 03:40:01;;;;;;;8.10;5.50;;;9.30;99.90;;;;;;5029700;28;20965;-70
2022/04/06 03:42:28;;;;;;;8.00;6.27;;;9.30;99.90;;;;;;5030053;28;20492;-71
2022/04/06 03:44:55;;;;;;;6.10;4.77;;;9.30;99.90;;;;;;5030213;28;20446;-71
2022/04/06 03:47:27;;;;;;;9.07;5.80;;;9.30;99.90;;;;;;5030304;28;20441;-71
2022/04/06 03:49:54;;;;;;;22.93;7.17;;;9.30;99.90;;;;;;5029615;28;20527;-71
2022/04/06 03:52:21;;;;;;;14.33;5.80;;;9.20;99.90;;;;;;5032905;28;20538;-70
2022/04/06 03:54:49;;;;;;;9.60;5.80;;;9.20;99.90;;;;;;5033579;28;20445;-71
2022/04/06 03:57:15;;;;;;;7.73;5.00;;;9.30;99.90;;;;;;5032830;28;20527;-71
2022/04/06 03:59:42;;;;;;;13.00;4.77;;;9.30;99.90;;;;;;5033501;28;20481;-70
2022/04/06 04:02:08;;;;;;;12.70;5.13;;;9.30;99.90;;;;;;5033004;28;20480;-71
2022/04/06 04:04:35;;;;;;;9.17;4.80;;;9.30;99.90;;;;;;5033240;28;20453;-70
2022/04/06 04:07:02;;;;;;;8.87;4.80;;;9.30;99.90;;;;;;5033304;28;20453;-70
2022/04/06 04:09:29;;;;;;;10.33;4.90;;;9.20;99.90;;;;;;5032673;28;21007;-71
2022/04/06 04:11:57;;;;;;;7.57;4.47;;;9.20;99.90;;;;;;5033148;28;20481;-71
2022/04/06 04:14:24;;;;;;;8.33;4.20;;;9.20;99.90;;;;;;5032865;28;20461;-70
2022/04/06 04:16:50;;;;;;;7.60;4.47;;;9.20;99.90;;;;;;5032817;28;20449;-70
2022/04/06 04:19:17;;;;;;;9.73;4.20;;;9.20;99.90;;;;;;5032238;28;20481;-70
2022/04/06 04:21:44;;;;;;;9.07;4.13;;;9.20;99.90;;;;;;5032804;28;20457;-71
2022/04/06 04:24:11;;;;;;;7.27;4.17;;;9.10;99.90;;;;;;5032401;28;20531;-71
2022/04/06 04:26:40;;;;;;;21.70;4.63;;;9.10;99.90;;;;;;5032852;28;20454;-71
2022/04/06 04:29:08;;;;;;;10.40;4.50;;;9.10;99.90;;;;;;5032547;28;20558;-71
2022/04/06 04:31:35;;;;;;;5.73;3.50;;;9.00;99.90;;;;;;5032718;28;20477;-71
2022/04/06 04:34:02;;;;;;;5.67;3.57;;;8.90;99.90;;;;;;5030973;28;21016;-71
2022/04/06 04:36:29;;;;;;;13.47;3.77;;;8.90;99.90;;;;;;5032621;28;20453;-71
2022/04/06 04:38:56;;;;;;;8.63;3.63;;;8.90;99.90;;;;;;5032439;28;20504;-71
2022/04/06 04:41:23;;;;;;;6.83;3.50;;;8.80;99.90;;;;;;5032529;28;20503;-71
2022/04/06 04:43:51;;;;;;;8.13;3.23;;;8.80;99.90;;;;;;5032287;28;20537;-70
2022/04/06 04:46:19;;;;;;;4.40;3.63;;;8.80;99.90;;;;;;5032109;28;20454;-71
2022/04/06 04:48:46;;;;;;;5.43;3.20;;;8.70;99.90;;;;;;5032590;28;20473;-70
2022/04/06 04:51:13;;;;;;;8.17;3.30;;;8.70;99.90;;;;;;5031970;28;20481;-71
2022/04/06 04:53:41;;;;;;;3.93;2.70;;;8.80;99.90;;;;;;5032136;28;21046;-70
2022/04/06 04:56:08;;;;;;;4.10;3.00;;;8.80;99.90;;;;;;5031917;28;20453;-71
2022/04/06 04:58:35;;;;;;;6.00;3.40;;;8.80;99.90;;;;;;5032126;28;20481;-71
2022/04/06 05:01:02;;;;;;;11.13;3.20;;;8.90;99.90;;;;;;5031424;28;20511;-71
2022/04/06 05:03:30;;;;;;;4.50;2.93;;;8.80;99.90;;;;;;5031848;28;20518;-72
2022/04/06 05:05:58;;;;;;;12.07;2.90;;;8.80;99.90;;;;;;5031761;28;20461;-71
2022/04/06 05:08:25;;;;;;;5.90;2.87;;;8.80;99.90;;;;;;5037883;28;20472;-72
2022/04/06 05:10:52;;;;;;;9.83;3.90;;;8.80;99.90;;;;;;5040260;28;20547;-71
2022/04/06 05:13:18;;;;;;;6.43;3.17;;;8.80;99.90;;;;;;5031946;28;20456;-71
2022/04/06 05:15:46;;;;;;;6.07;2.60;;;8.80;99.90;;;;;;5031529;28;20563;-72
2022/04/06 05:18:13;;;;;;;6.57;3.33;;;8.80;99.90;;;;;;5031323;28;20472;-71
2022/04/06 05:20:42;;;;;;;4.37;2.93;;;8.80;99.90;;;;;;5032418;28;20507;-71
2022/04/06 05:23:08;;;;;;;9.70;3.00;;;8.80;99.90;;;;;;5031799;28;20809;-72
2022/04/06 05:25:35;;;;;;;8.57;3.30;;;8.80;99.90;;;;;;5031799;28;20480;-71
2022/04/06 05:28:02;;;;;;;7.20;3.37;;;8.80;99.90;;;;;;5031519;28;20481;-70
2022/04/06 05:30:29;;;;;;;5.63;2.50;;;8.80;99.90;;;;;;5031214;28;20453;-71
2022/04/06 05:32:57;;;;;;;8.40;2.77;;;8.80;99.90;;;;;;5030662;28;20481;-71
2022/04/06 05:35:26;;;;;;;7.70;2.57;;;8.80;99.90;;;;;;5031282;28;20513;-71
2022/04/06 05:37:56;;;;;;;7.60;2.80;;;8.80;99.90;;;;;;5031687;28;20481;-71
2022/04/06 05:40:23;;;;;;;6.60;2.77;;;8.80;99.90;;;;;;5031512;28;20446;-72
2022/04/06 05:42:49;;;;;;;8.20;2.80;;;8.80;99.90;;;;;;5030445;28;20454;-71
2022/04/06 05:45:16;;;;;;;5.20;2.40;;;8.80;99.90;;;;;;5030735;28;20504;-71
2022/04/06 05:47:43;;;;;;;9.50;2.50;;;8.80;99.90;;;;;;5030899;28;20465;-71
2022/04/06 05:50:11;;;;;;;10.40;2.80;;;8.80;99.90;;;;;;5030849;28;20527;-71
2022/04/06 05:52:38;;;;;;;2.83;2.37;;;8.80;99.90;;;;;;5030746;28;20535;-72
2022/04/06 05:55:07;;;;;;;5.40;2.63;;;8.80;99.90;;;;;;5030474;28;20495;-71
2022/04/06 05:57:34;;;;;;;5.67;2.90;;;8.90;99.90;;;;;;5030741;28;20859;-71
2022/04/06 06:00:00;;;;;;;2.63;2.20;;;8.90;99.90;;;;;;5029904;28;20965;-72
2022/04/06 06:02:29;;;;;;;4.37;2.33;;;8.90;99.90;;;;;;5030552;28;20849;-71
2022/04/06 06:04:56;;;;;;;3.00;2.50;;;9.00;99.90;;;;;;5031044;28;20549;-72
2022/04/06 06:07:22;;;;;;;3.80;2.20;;;9.00;99.90;;;;;;5036346;28;20986;-72
2022/04/06 06:09:49;;;;;;;3.73;2.30;;;9.10;99.90;;;;;;5037813;28;20481;-72
2022/04/06 06:12:17;;;;;;;7.80;2.10;;;9.10;99.90;;;;;;5029773;28;20504;-72
2022/04/06 06:14:44;;;;;;;3.50;2.37;;;9.10;99.90;;;;;;5030320;28;20480;-71
2022/04/06 06:17:11;;;;;;;4.50;2.13;;;9.10;99.90;;;;;;5030367;28;21021;-71
2022/04/06 06:19:38;;;;;;;9.80;2.07;;;9.20;99.90;;;;;;5030956;28;21031;-71
2022/04/06 06:22:04;;;;;;;4.83;2.23;;;9.20;99.90;;;;;;5031371;28;20450;-71
2022/04/06 06:24:32;;;;;;;2.60;2.37;;;9.20;99.90;;;;;;5030612;28;20833;-71
2022/04/06 06:26:59;;;;;;;10.60;2.20;;;9.20;99.90;;;;;;5030774;28;20818;-72
2022/04/06 06:29:27;;;;;;;8.70;2.40;;;9.30;99.90;;;;;;5030352;28;20477;-72
2022/04/06 06:31:54;;;;;;;5.23;2.13;;;9.30;99.90;;;;;;5030235;28;20477;-72
2022/04/06 06:34:21;;;;;;;4.80;2.13;;;9.30;99.90;;;;;;5030388;28;20960;-72
2022/04/06 06:36:48;;;;;;;4.87;2.00;;;9.30;99.90;;;;;;5030908;28;20837;-72
2022/04/06 06:39:14;;;;;;;3.63;2.57;;;9.30;99.90;;;;;;5030580;28;20500;-72
2022/04/06 06:41:42;;;;;;;3.87;2.03;;;9.30;99.90;;;;;;5030823;28;20503;-72
2022/04/06 06:44:09;;;;;;;7.03;2.43;;;9.30;99.90;;;;;;5030246;28;20475;-72
2022/04/06 06:46:37;;;;;;;6.40;2.60;;;9.30;99.90;;;;;;5030791;28;20810;-72
2022/04/06 06:49:03;;;;;;;7.40;2.57;;;9.30;99.90;;;;;;5030210;28;20469;-72
2022/04/06 06:51:31;;;;;;;5.20;2.83;;;9.30;99.90;;;;;;5031055;28;20830;-72
2022/04/06 06:53:58;;;;;;;3.90;2.07;;;9.30;99.90;;;;;;5030583;28;20953;-72
2022/04/06 06:56:24;;;;;;;7.33;2.60;;;9.30;99.90;;;;;;5030880;28;20511;-72
2022/04/06 06:58:51;;;;;;;6.00;2.23;;;9.30;99.90;;;;;;5030221;28;20519;-71
2022/04/06 07:01:18;;;;;;;4.07;2.40;;;9.30;99.90;;;;;;5030324;28;20450;-72
2022/04/06 07:03:46;;;;;;;6.60;2.60;;;9.30;99.90;;;;;;5030090;28;20461;-72
2022/04/06 07:06:13;;;;;;;5.27;2.23;;;9.30;99.90;;;;;;5030396;28;20476;-72
2022/04/06 07:08:39;;;;;;;4.03;2.43;;;9.40;99.90;;;;;;5045788;28;20468;-72
2022/04/06 07:11:06;;;;;;;4.63;2.30;;;9.40;99.90;;;;;;5049460;28;20506;-72
2022/04/06 07:13:32;;;;;;;8.07;2.27;;;9.40;99.90;;;;;;5033605;28;20893;-72
2022/04/06 07:15:59;;;;;;;3.50;2.40;;;9.40;99.90;;;;;;5027315;28;20445;-71
2022/04/06 07:18:26;;;;;;;4.00;2.40;;;9.30;99.90;;;;;;5027944;28;20985;-72
2022/04/06 07:20:54;;;;;;;4.03;2.87;;;9.50;99.90;;;;;;5028365;28;21007;-72
2022/04/06 07:23:20;;;;;;;10.40;3.00;;;9.50;99.90;;;;;;5024892;28;20446;-71
2022/04/06 07:25:47;;;;;;;4.87;2.30;;;9.60;99.90;;;;;;5032104;28;20620;-71
2022/04/06 07:28:14;;;;;;;6.00;2.80;;;9.70;99.90;;;;;;5032507;28;20507;-73
2022/04/06 07:30:40;;;;;;;5.83;2.23;;;9.70;99.90;;;;;;5025643;28;20449;-73
2022/04/06 07:33:09;;;;;;;10.03;2.83;;;9.70;99.90;;;;;;5024203;28;20513;-73
2022/04/06 07:35:37;;;;;;;4.07;2.27;;;9.70;99.90;;;;;;5038785;28;20854;-73
2022/04/06 07:38:06;;;;;;;7.73;2.60;;;9.70;99.90;;;;;;5042506;28;20473;-73
2022/04/06 07:40:33;;;;;;;7.07;2.60;;;9.70;99.90;;;;;;5035093;28;20449;-73
2022/04/06 07:43:00;;;;;;;3.60;3.13;;;9.70;99.90;;;;;;5040054;28;20453;-74
2022/04/06 07:45:27;;;;;;;9.37;3.20;;;9.70;99.90;;;;;;5044570;28;20460;-73
2022/04/06 07:47:54;;;;;;;3.80;3.30;;;9.70;99.90;;;;;;5045561;28;20477;-73
2022/04/06 07:50:21;;;;;;;6.80;3.20;;;9.80;99.90;;;;;;5036841;28;20459;-73
2022/04/06 07:52:49;;;;;;;6.33;2.87;;;9.90;99.90;;;;;;5038641;28;20577;-75
2022/04/06 07:55:17;;;;;;;11.13;3.23;;;9.90;99.90;;;;;;5037715;28;21140;-74
2022/04/06 07:57:44;;;;;;;11.97;3.20;;;9.90;99.90;;;;;;5037916;28;20482;-73
2022/04/06 08:00:12;;;;;;;4.80;2.93;;;9.90;99.90;;;;;;5037273;28;20461;-73
2022/04/06 08:02:39;;;;;;;6.70;2.60;;;9.90;99.90;;;;;;5040000;28;20527;-74
2022/04/06 08:05:06;;;;;;;5.90;2.83;;;9.80;99.90;;;;;;5033258;28;21014;-74
2022/04/06 08:07:39;;;;;;;9.70;4.77;;;9.90;99.90;;;;;;5034559;28;20458;-74
2022/04/06 08:10:07;;;;;;;7.47;2.93;;;9.90;99.90;;;;;;5041205;28;20461;-73
2022/04/06 08:12:35;;;;;;;6.20;2.63;;;9.90;99.90;;;;;;5041943;28;20491;-74
2022/04/06 08:15:02;;;;;;;2.90;2.30;;;10.00;99.90;;;;;;5038471;28;20469;-74
2022/04/06 08:17:32;;;;;;;3.67;2.43;;;10.00;99.90;;;;;;5045091;28;20493;-74
2022/04/06 08:19:59;;;;;;;9.10;2.40;;;10.00;99.90;;;;;;5042170;28;20455;-74
2022/04/06 08:22:25;;;;;;;5.03;2.43;;;10.10;99.90;;;;;;5043351;28;20445;-74
2022/04/06 08:24:52;;;;;;;2.93;2.60;;;10.20;99.90;;;;;;5044639;28;20454;-74
2022/04/06 08:27:18;;;;;;;8.07;2.20;;;10.30;99.90;;;;;;5039720;28;20505;-74
2022/04/06 08:29:46;;;;;;;10.13;2.53;;;10.40;99.90;;;;;;5047716;28;20973;-74
2022/04/06 08:32:14;;;;;;;6.43;2.90;;;10.40;99.90;;;;;;5045723;28;20477;-73
2022/04/06 08:34:40;;;;;;;7.23;3.40;;;10.50;99.90;;;;;;5038198;28;20548;-73
2022/04/06 08:37:08;;;;;;;6.00;2.50;;;10.50;99.90;;;;;;5035014;28;20454;-74
2022/04/06 08:39:35;;;;;;;4.80;2.40;;;10.60;99.90;;;;;;5046104;28;20476;-74
2022/04/06 08:42:02;;;;;;;6.27;3.00;;;10.60;99.90;;;;;;5049888;28;20441;-73
2022/04/06 08:44:28;;;;;;;5.87;3.20;;;10.70;99.90;;;;;;5046615;28;20456;-73
2022/04/06 08:47:03;;;;;;;3.10;2.10;;;10.90;99.90;;;;;;5039125;28;20499;-72
2022/04/06 08:49:32;;;;;;;5.23;2.27;;;11.20;99.90;;;;;;5041714;28;20522;-74
2022/04/06 08:52:00;;;;;;;5.30;2.80;;;11.60;99.90;;;;;;5039862;28;20452;-73
2022/04/06 08:54:27;;;;;;;7.60;2.70;;;11.70;99.90;;;;;;5040507;28;20454;-74
2022/04/06 08:56:55;;;;;;;9.33;2.63;;;11.50;99.90;;;;;;5036728;28;20449;-73
2022/04/06 08:59:22;;;;;;;10.83;2.67;;;11.40;99.90;;;;;;5040140;28;20476;-74
2022/04/06 09:01:49;;;;;;;6.75;2.50;;;11.60;99.90;;;;;;5032368;28;20522;-75
2022/04/06 09:04:19;;;;;;;3.27;2.80;;;11.90;99.90;;;;;;5034489;28;20207;-74
2022/04/06 09:06:47;;;;;;;7.75;2.50;;;12.30;99.90;;;;;;5042919;28;20917;-73
2022/04/06 09:09:21;;;;;;;6.30;2.60;;;12.60;99.90;;;;;;5037613;28;20253;-73
2022/04/06 09:11:48;;;;;;;5.00;2.93;;;12.90;99.90;;;;;;5046630;28;20535;-73
2022/04/06 09:14:15;;;;;;;8.57;3.30;;;12.80;99.90;;;;;;5043510;28;20821;-73
2022/04/06 09:16:42;;;;;;;4.27;2.63;;;12.80;99.90;;;;;;5039381;28;20444;-73
2022/04/06 09:19:09;;;;;;;4.93;2.93;;;12.80;99.90;;;;;;5039003;28;20491;-73
2022/04/06 09:21:41;;;;;;;8.20;2.90;;;12.50;99.90;;;;;;5045958;28;20468;-73
2022/04/06 09:24:15;;;;;;;8.30;3.80;;;12.20;99.90;;;;;;5047211;28;20472;-73
2022/04/06 09:26:42;;;;;;;6.37;3.17;;;12.00;99.90;;;;;;5036782;28;20532;-73
2022/04/06 09:29:12;;;;;;;8.13;3.00;;;11.90;99.90;;;;;;5033843;28;20473;-73
2022/04/06 09:31:40;;;;;;;3.70;3.00;;;11.90;99.90;;;;;;5034674;28;20452;-73
2022/04/06 09:34:12;;;;;;;4.27;2.70;;;12.20;99.90;;;;;;5042096;28;20530;-73
2022/04/06 09:36:40;;;;;;;9.17;3.50;;;12.30;99.90;;;;;;5039320;28;20453;-73
2022/04/06 09:39:07;;;;;;;3.93;3.10;;;12.30;99.90;;;;;;5041123;28;20477;-73
2022/04/06 09:41:34;;;;;;;6.23;3.40;;;12.10;99.90;;;;;;5036420;28;20445;-73
2022/04/06 09:47:38;;;;;;;7.70;3.00;;;12.00;99.90;;;;;;5031902;28;20449;-73
2022/04/06 09:50:08;;;;;;;9.30;3.10;;;11.60;99.90;;;;;;5037966;28;20528;-73
2022/04/06 09:52:37;;;;;;;8.30;3.30;;;11.60;99.90;;;;;;5036003;28;20485;-73
2022/04/06 09:55:08;;;;;;;6.50;3.20;;;11.60;99.90;;;;;;5034366;28;20918;-75
2022/04/06 09:57:41;;;;;;;4.20;3.00;;;11.50;99.90;;;;;;5042137;28;21183;-73
2022/04/06 10:00:10;;;;;;;4.10;2.90;;;11.50;99.90;;;;;;5038392;28;20489;-73
2022/04/06 10:02:38;;;;;;;7.33;3.37;;;11.70;99.90;;;;;;5046310;28;21074;-73
2022/04/06 10:05:06;;;;;;;8.00;2.93;;;12.10;99.90;;;;;;5044439;28;20454;-73
2022/04/06 10:07:33;;;;;;;9.43;3.30;;;12.10;99.90;;;;;;5040268;28;20791;-73
2022/04/06 10:10:02;;;;;;;7.33;3.10;;;11.90;99.90;;;;;;5036980;28;20902;-73
2022/04/06 10:12:29;;;;;;;10.30;3.63;;;11.90;99.90;;;;;;5033361;28;20485;-73
2022/04/06 10:14:57;;;;;;;5.97;2.83;;;11.90;99.90;;;;;;5032128;28;20449;-73
2022/04/06 10:17:25;;;;;;;4.97;2.90;;;11.90;99.90;;;;;;5042864;28;20952;-73
2022/04/06 10:20:00;;;;;;;6.90;3.10;;;12.00;99.90;;;;;;5041229;28;20830;-73
2022/04/06 10:22:32;;;;;;;4.67;2.80;;;12.20;99.90;;;;;;5035220;28;20491;-73
2022/04/06 10:25:09;;;;;;;7.43;3.20;;;12.60;99.90;;;;;;5034578;28;20457;-73
2022/04/06 10:27:41;;;;;;;9.53;3.30;;;12.60;99.90;;;;;;5031812;28;20509;-73
2022/04/06 10:30:13;;;;;;;10.43;2.97;;;12.40;99.90;;;;;;5032728;28;20453;-73
2022/04/06 10:32:41;;;;;;;6.83;3.17;;;12.30;99.90;;;;;;5042974;28;20484;-73
2022/04/06 10:35:25;;;;;;;6.70;3.77;;;12.10;99.90;;;;;;5044242;28;20488;-73
2022/04/06 10:38:12;;;;;;;3.27;2.60;;;12.10;99.90;;;;;;5039340;28;20494;-73
2022/04/06 10:41:06;;;;;;;8.60;2.97;;;12.20;99.90;;;;;;5037231;28;20456;-73
2022/04/06 10:43:52;;;;;;;6.40;2.90;;;12.30;99.90;;;;;;5030585;28;20485;-73
2022/04/06 10:46:34;;;;;;;7.10;3.20;;;12.30;99.90;;;;;;5036680;28;20458;-72
2022/04/06 10:49:13;;;;;;;5.00;2.90;;;12.20;99.90;;;;;;5034781;28;20477;-72
2022/04/06 10:51:41;;;;;;;5.67;3.27;;;12.00;99.90;;;;;;5046710;28;20544;-71
2022/04/06 10:54:42;;;;;;;4.10;2.50;;;12.10;99.90;;;;;;5046161;28;20515;-72
2022/04/06 10:57:10;;;;;;;6.67;2.60;;;12.20;99.90;;;;;;5039300;28;20455;-73
2022/04/06 10:59:37;;;;;;;5.30;2.70;;;12.30;99.90;;;;;;5039794;28;20477;-73
2022/04/06 11:02:23;;;;;;;4.17;2.10;;;12.20;99.90;;;;;;5044862;28;20456;-74
2022/04/06 11:04:50;;;;;;;6.17;2.50;;;12.30;99.90;;;;;;5041712;28;20459;-73
2022/04/06 11:10:25;;;;;;;6.70;2.63;;;13.00;99.90;;;;;;5042704;28;20444;-73
2022/04/06 11:13:03;;;;;;;9.50;2.87;;;13.00;99.90;;;;;;5036635;28;20579;-73
2022/04/06 11:15:37;;;;;;;4.50;2.83;;;12.80;99.90;;;;;;5044261;28;20453;-74
2022/04/06 11:18:04;;;;;;;6.07;3.00;;;13.10;99.90;;;;;;5044705;28;20467;-73
2022/04/06 11:20:33;;;;;;;3.73;3.13;;;13.70;99.90;;;;;;5041252;28;20453;-73
2022/04/06 11:23:00;;;;;;;11.40;3.03;;;13.80;99.90;;;;;;5041545;28;20456;-73
2022/04/06 11:25:28;;;;;;;6.20;3.03;;;14.00;99.90;;;;;;5044168;28;20449;-74
2022/04/06 11:27:56;;;;;;;8.30;2.73;;;14.10;99.90;;;;;;5043272;28;21021;-74
2022/04/06 11:30:26;;;;;;;10.87;2.70;;;14.10;99.90;;;;;;5048569;28;20471;-74
2022/04/06 11:32:55;;;;;;;6.67;3.00;;;14.20;99.90;;;;;;5050243;28;20571;-73
2022/04/06 11:35:28;;;;;;;13.33;3.10;;;14.10;99.90;;;;;;5037880;28;20457;-75
2022/04/06 11:37:55;;;;;;;11.70;3.13;;;13.80;99.90;;;;;;5039611;28;21052;-74
2022/04/06 11:40:24;;;;;;;4.37;2.97;;;13.40;99.90;;;;;;5037334;28;20510;-73
2022/04/06 11:42:52;;;;;;;7.10;3.77;;;13.30;99.90;;;;;;5035815;28;20448;-73
2022/04/06 11:45:21;;;;;;;8.87;3.10;;;13.20;99.90;;;;;;5040262;28;20527;-73
2022/04/06 11:47:53;;;;;;;8.40;2.93;;;13.10;99.90;;;;;;5043371;28;20464;-75
2022/04/06 11:50:20;;;;;;;6.80;2.63;;;13.00;99.90;;;;;;5042732;28;20804;-75
2022/04/06 11:52:47;;;;;;;5.63;2.90;;;13.10;99.90;;;;;;5045764;28;20500;-75
2022/04/06 11:55:13;;;;;;;4.03;3.03;;;13.20;99.90;;;;;;5044792;28;20509;-75
2022/04/06 11:57:42;;;;;;;8.77;3.57;;;13.20;99.90;;;;;;5048047;28;20519;-74
2022/04/06 12:00:11;;;;;;;6.17;3.30;;;13.10;99.90;;;;;;5041506;28;20534;-75
2022/04/06 12:02:53;;;;;;;10.30;3.60;;;12.90;99.90;;;;;;5040440;28;20464;-75
2022/04/06 12:05:21;;;;;;;6.03;4.10;;;13.00;99.90;;;;;;5042290;28;20456;-73
2022/04/06 12:07:49;;;;;;;11.10;3.53;;;13.10;99.90;;;;;;5036308;28;20450;-74
2022/04/06 12:10:16;;;;;;;7.50;3.50;;;13.20;99.90;;;;;;5039685;28;20461;-74
2022/04/06 12:12:43;;;;;;;9.80;4.00;;;13.10;99.90;;;;;;5035894;28;20815;-74
2022/04/06 12:15:10;;;;;;;12.57;4.13;;;13.40;99.90;;;;;;5042666;28;20483;-74
2022/04/06 12:17:39;;;;;;;11.07;3.73;;;13.70;99.90;;;;;;5042394;28;20458;-74
2022/04/06 12:20:23;;;;;;;4.10;3.40;;;13.90;99.90;;;;;;5037758;28;20460;-74
2022/04/06 12:23:03;;;;;;;8.47;3.40;;;13.80;99.90;;;;;;5035181;28;20445;-74
2022/04/06 12:25:32;;;;;;;10.23;3.33;;;14.00;99.90;;;;;;5042205;28;20444;-74
2022/04/06 12:28:15;;;;;;;5.10;3.00;;;14.20;99.90;;;;;;5044610;28;20969;-74
2022/04/06 12:30:57;;;;;;;6.77;3.20;;;14.50;99.90;;;;;;5038083;28;20535;-74
2022/04/06 12:33:34;;;;;;;10.03;4.10;;;14.50;99.90;;;;;;5036297;28;20451;-74
2022/04/06 12:36:18;;;;;;;8.20;3.80;;;14.30;99.90;;;;;;5036684;28;20779;-72
2022/04/06 12:38:58;;;;;;;5.77;4.57;;;13.70;99.90;;;;;;5047162;28;20998;-72
2022/04/06 12:41:25;;;;;;;12.90;3.87;;;13.30;99.90;;;;;;5040568;28;20457;-72
2022/04/06 12:43:53;;;;;;;6.80;2.93;;;13.30;99.90;;;;;;5041948;28;20448;-73
2022/04/06 12:46:43;;;;;;;5.90;2.90;;;13.70;99.90;;;;;;5037387;28;20461;-72
2022/04/06 12:49:27;;;;;;;5.80;2.80;;;13.90;99.90;;;;;;5037372;28;20479;-73
2022/04/06 12:52:06;;;;;;;4.87;2.97;;;13.80;99.90;;;;;;5041438;28;20498;-72
2022/04/06 12:54:34;;;;;;;5.40;3.00;;;13.90;99.90;;;;;;5037210;28;20468;-72
2022/04/06 12:57:05;;;;;;;3.70;2.83;;;14.20;99.90;;;;;;5046818;28;20448;-72
2022/04/06 12:59:39;;;;;;;5.13;2.43;;;14.50;99.90;;;;;;5035469;28;20466;-72
2022/04/06 13:02:06;;;;;;;5.77;2.80;;;14.90;99.90;;;;;;5033192;28;20874;-72
2022/04/06 13:04:37;;;;;;;11.07;3.00;;;14.70;99.90;;;;;;5038699;28;20445;-73
2022/04/06 13:07:07;;;;;;;6.10;3.00;;;15.00;99.90;;;;;;5038989;28;20428;-72
2022/04/06 13:09:34;;;;;;;5.80;2.60;;;15.50;99.90;;;;;;5037948;28;20472;-73
2022/04/06 13:12:01;;;;;;;12.03;2.60;;;16.00;99.90;;;;;;5037018;28;20427;-72